createdAt,value
2023-04-18T00:01:55.080Z,7.85
2023-04-18T00:04:24.456Z,7.80
2023-04-18T00:06:51.417Z,7.30
2023-04-18T00:09:18.319Z,6.90
2023-04-18T00:11:45.390Z,6.60
2023-04-18T00:14:12.495Z,7.45
2023-04-18T00:16:39.425Z,7.72
2023-04-18T00:19:06.590Z,6.88
2023-04-18T00:21:33.309Z,6.97
2023-04-18T00:24:00.219Z,7.53
2023-04-18T00:26:28.167Z,6.65
2023-04-18T00:28:57.035Z,7.57
2023-04-18T00:31:24.116Z,7.50
2023-04-18T00:33:51.023Z,8.00
2023-04-18T00:36:17.756Z,8.23
2023-04-18T00:38:45.062Z,7.63
2023-04-18T00:41:11.803Z,7.20
2023-04-18T00:43:38.551Z,8.20
2023-04-18T00:46:06.261Z,7.72
2023-04-18T00:48:33.945Z,7.55
2023-04-18T00:51:00.856Z,7.90
2023-04-18T00:53:28.497Z,7.72
2023-04-18T00:55:55.716Z,7.22
2023-04-18T00:58:23.325Z,8.68
2023-04-18T01:00:52.116Z,8.77
2023-04-18T01:03:19.293Z,8.98
2023-04-18T01:05:46.537Z,7.63
2023-04-18T01:08:13.608Z,8.70
2023-04-18T01:10:40.582Z,7.70
2023-04-18T01:13:16.533Z,8.18
2023-04-18T01:15:44.522Z,7.55
2023-04-18T01:18:13.086Z,7.65
2023-04-18T01:20:41.530Z,7.75
2023-04-18T01:23:10.408Z,7.97
2023-04-18T01:25:37.358Z,8.20
2023-04-18T01:28:04.625Z,8.85
2023-04-18T01:30:31.895Z,8.32
2023-04-18T01:33:00.009Z,8.93
2023-04-18T01:35:27.044Z,8.88
2023-04-18T01:37:57.227Z,7.47
2023-04-18T01:40:24.608Z,8.82
2023-04-18T01:42:51.435Z,8.85
2023-04-18T01:45:19.968Z,9.27
2023-04-18T01:47:47.176Z,8.50
2023-04-18T01:50:14.385Z,8.23
2023-04-18T01:52:42.815Z,8.77
2023-04-18T01:55:10.180Z,10.00
2023-04-18T01:57:36.895Z,8.82
2023-04-18T02:00:08.039Z,8.80
2023-04-18T02:02:52.816Z,9.38
2023-04-18T02:05:21.350Z,9.30
2023-04-18T02:07:50.074Z,9.38
2023-04-18T02:10:18.493Z,9.43
2023-04-18T02:12:45.433Z,8.95
2023-04-18T02:15:12.151Z,9.70
2023-04-18T02:17:38.934Z,9.55
2023-04-18T02:20:07.975Z,9.85
2023-04-18T02:22:36.274Z,10.13
2023-04-18T02:25:03.126Z,9.15
2023-04-18T02:27:30.043Z,9.50
2023-04-18T02:29:58.472Z,9.80
2023-04-18T02:32:25.437Z,9.32
2023-04-18T02:34:52.205Z,9.45
2023-04-18T02:37:18.861Z,10.00
2023-04-18T02:39:45.681Z,8.48
2023-04-18T02:42:12.478Z,9.02
2023-04-18T02:44:39.136Z,9.13
2023-04-18T02:47:05.949Z,9.57
2023-04-18T02:49:35.299Z,9.93
2023-04-18T02:52:02.099Z,10.25
2023-04-18T02:54:28.906Z,10.05
2023-04-18T02:57:08.967Z,9.75
2023-04-18T02:59:54.614Z,9.40
2023-04-18T03:02:21.352Z,8.77
2023-04-18T03:04:53.743Z,9.25
2023-04-18T03:07:20.523Z,9.75
2023-04-18T03:09:49.349Z,9.75
2023-04-18T03:12:24.449Z,9.85
2023-04-18T03:14:51.964Z,11.98
2023-04-18T03:17:19.903Z,9.55
2023-04-18T03:19:48.940Z,10.07
2023-04-18T03:22:18.840Z,11.05
2023-04-18T03:24:53.978Z,9.77
2023-04-18T03:27:23.174Z,9.95
2023-04-18T03:29:50.117Z,10.40
2023-04-18T03:32:17.238Z,9.85
2023-04-18T03:34:44.376Z,10.88
2023-04-18T03:37:11.256Z,10.23
2023-04-18T03:39:43.631Z,10.25
2023-04-18T03:42:10.688Z,11.23
2023-04-18T03:44:38.028Z,10.60
2023-04-18T03:47:05.016Z,11.60
2023-04-18T03:49:34.786Z,9.73
2023-04-18T03:52:03.298Z,10.77
2023-04-18T03:54:30.146Z,10.20
2023-04-18T03:56:59.347Z,11.25
2023-04-18T03:59:27.306Z,10.27
2023-04-18T04:01:55.900Z,10.43
2023-04-18T04:04:22.780Z,11.27
2023-04-18T04:06:50.811Z,11.27
2023-04-18T04:09:17.643Z,11.15
2023-04-18T04:11:46.243Z,10.45
2023-04-18T04:14:14.820Z,9.75
2023-04-18T04:16:45.257Z,10.43
2023-04-18T04:19:16.154Z,11.13
2023-04-18T04:21:51.517Z,11.52
2023-04-18T04:24:18.567Z,10.35
2023-04-18T04:26:48.693Z,11.50
2023-04-18T04:29:19.480Z,10.65
2023-04-18T04:31:47.804Z,9.55
2023-04-18T04:34:21.673Z,10.63
2023-04-18T04:36:48.923Z,11.43
2023-04-18T04:39:15.621Z,10.68
2023-04-18T04:42:09.664Z,9.05
2023-04-18T04:44:46.489Z,10.68
2023-04-18T04:47:13.492Z,10.60
2023-04-18T04:49:40.227Z,9.27
2023-04-18T04:52:08.150Z,9.77
2023-04-18T04:54:35.446Z,10.23
2023-04-18T04:57:04.542Z,10.27
2023-04-18T04:59:31.391Z,9.85
2023-04-18T05:01:58.315Z,9.50
2023-04-18T05:04:25.972Z,9.00
2023-04-18T05:06:53.334Z,10.40
2023-04-18T05:09:20.395Z,9.88
2023-04-18T05:11:51.692Z,9.60
2023-04-18T05:14:20.849Z,10.43
2023-04-18T05:16:48.901Z,10.43
2023-04-18T05:19:16.175Z,10.23
2023-04-18T05:21:42.810Z,9.77
2023-04-18T05:24:09.804Z,10.57
2023-04-18T05:26:36.970Z,11.43
2023-04-18T05:29:03.700Z,12.25
2023-04-18T05:31:30.835Z,11.80
2023-04-18T05:33:57.615Z,11.13
2023-04-18T05:36:24.407Z,10.75
2023-04-18T05:38:51.653Z,10.90
2023-04-18T05:41:18.552Z,11.50
2023-04-18T05:43:54.209Z,12.57
2023-04-18T05:46:29.047Z,11.73
2023-04-18T05:48:56.905Z,12.30
2023-04-18T05:51:23.735Z,12.10
2023-04-18T05:53:50.689Z,12.45
2023-04-18T05:56:17.431Z,11.38
2023-04-18T05:58:45.656Z,12.50
2023-04-18T06:01:14.185Z,13.00
2023-04-18T06:03:41.669Z,12.88
2023-04-18T06:06:09.919Z,13.50
2023-04-18T06:08:39.386Z,13.05
2023-04-18T06:11:06.294Z,12.55
2023-04-18T06:13:33.034Z,13.02
2023-04-18T06:16:00.839Z,12.40
2023-04-18T06:18:27.629Z,13.10
2023-04-18T06:20:57.133Z,12.88
2023-04-18T06:23:26.455Z,13.02
2023-04-18T06:25:55.670Z,14.35
2023-04-18T06:28:28.987Z,13.60
2023-04-18T06:30:58.189Z,14.90
2023-04-18T06:33:32.490Z,13.75
2023-04-18T06:36:03.300Z,14.32
2023-04-18T06:38:30.929Z,14.18
2023-04-18T06:40:57.872Z,12.77
2023-04-18T06:43:24.804Z,14.27
2023-04-18T06:45:52.026Z,13.45
2023-04-18T06:48:22.665Z,15.32
2023-04-18T06:50:50.277Z,15.43
2023-04-18T06:53:17.312Z,14.60
2023-04-18T06:55:50.552Z,14.50
2023-04-18T06:58:17.931Z,15.13
2023-04-18T07:00:49.962Z,13.93
2023-04-18T07:03:18.519Z,14.48
2023-04-18T07:05:54.249Z,15.35
2023-04-18T07:08:21.245Z,14.82
2023-04-18T07:10:51.259Z,14.88
2023-04-18T07:13:18.138Z,14.63
2023-04-18T07:15:45.810Z,15.60
2023-04-18T07:18:16.140Z,15.68
2023-04-18T07:20:49.768Z,15.80
2023-04-18T07:23:16.686Z,15.93
2023-04-18T07:25:43.646Z,14.95
2023-04-18T07:28:10.728Z,16.15
2023-04-18T07:30:37.676Z,16.63
2023-04-18T07:33:04.622Z,16.52
2023-04-18T07:35:31.576Z,17.70
2023-04-18T07:37:58.553Z,18.25
2023-04-18T07:40:25.604Z,16.73
2023-04-18T07:42:53.413Z,16.83
2023-04-18T07:45:20.400Z,16.80
2023-04-18T07:47:47.130Z,17.85
2023-04-18T07:50:14.104Z,17.75
2023-04-18T07:52:40.885Z,18.35
2023-04-18T07:55:08.053Z,18.02
2023-04-18T07:57:34.794Z,17.42
2023-04-18T08:00:02.060Z,16.23
2023-04-18T08:02:39.932Z,18.35
2023-04-18T08:05:07.568Z,18.23
2023-04-18T08:07:34.710Z,18.95
2023-04-18T08:10:01.671Z,17.92
2023-04-18T08:12:28.629Z,17.88
2023-04-18T08:14:55.430Z,17.73
2023-04-18T08:17:23.455Z,18.13
2023-04-18T08:19:50.935Z,17.50
2023-04-18T08:22:17.866Z,16.83
2023-04-18T08:25:00.963Z,17.13
2023-04-18T08:27:28.416Z,18.83
2023-04-18T08:29:55.758Z,16.52
2023-04-18T08:32:22.873Z,18.67
2023-04-18T08:34:50.069Z,18.65
2023-04-18T08:37:16.769Z,16.85
2023-04-18T08:39:44.835Z,18.30
2023-04-18T08:42:16.089Z,16.55
2023-04-18T08:44:49.126Z,15.43
2023-04-18T08:47:16.338Z,14.35
2023-04-18T08:49:45.447Z,15.25
2023-04-18T08:52:14.554Z,15.02
2023-04-18T08:54:43.074Z,15.73
2023-04-18T08:57:12.601Z,16.10
2023-04-18T08:59:46.706Z,14.65
2023-04-18T09:02:16.384Z,15.55
2023-04-18T09:04:45.205Z,14.32
2023-04-18T09:07:13.699Z,13.93
2023-04-18T09:09:51.866Z,14.98
2023-04-18T09:12:23.452Z,13.10
2023-04-18T09:14:52.245Z,14.02
2023-04-18T09:17:37.697Z,14.85
2023-04-18T09:20:06.272Z,14.25
2023-04-18T09:22:52.333Z,14.27
2023-04-18T09:25:40.148Z,13.27
2023-04-18T09:28:26.874Z,13.70
2023-04-18T09:31:22.725Z,14.27
2023-04-18T09:33:54.597Z,12.50
2023-04-18T09:36:29.065Z,13.35
2023-04-18T09:38:56.871Z,12.25
2023-04-18T09:41:24.324Z,12.93
2023-04-18T09:44:17.136Z,13.70
2023-04-18T09:46:47.484Z,14.27
2023-04-18T09:49:15.648Z,12.30
2023-04-18T09:51:44.273Z,14.48
2023-04-18T09:54:20.575Z,13.27
2023-04-18T09:56:50.595Z,13.10
2023-04-18T09:59:29.346Z,11.98
2023-04-18T10:01:59.228Z,12.00
2023-04-18T10:04:27.807Z,11.20
2023-04-18T10:06:54.906Z,10.93
2023-04-18T10:09:23.053Z,11.68
2023-04-18T10:11:50.147Z,11.70
2023-04-18T10:14:17.894Z,11.88
2023-04-18T10:16:45.677Z,12.23
2023-04-18T10:19:26.323Z,11.13
2023-04-18T10:21:57.200Z,12.00
2023-04-18T10:24:53.805Z,12.05
2023-04-18T10:27:48.443Z,11.32
2023-04-18T10:30:18.880Z,11.95
2023-04-18T10:32:46.767Z,11.68
2023-04-18T10:35:16.388Z,10.90
2023-04-18T10:37:50.944Z,11.43
2023-04-18T10:40:31.535Z,10.35
2023-04-18T10:42:58.938Z,10.98
2023-04-18T10:45:28.465Z,11.18
2023-04-18T10:48:30.312Z,10.23
2023-04-18T10:51:20.772Z,10.43
2023-04-18T10:53:59.569Z,10.40
2023-04-18T10:56:28.890Z,9.07
2023-04-18T10:59:01.226Z,9.23
2023-04-18T11:01:32.528Z,9.70
2023-04-18T11:04:02.749Z,9.10
2023-04-18T11:06:31.285Z,8.80
2023-04-18T11:09:14.411Z,10.02
2023-04-18T11:11:41.851Z,9.48
2023-04-18T11:14:08.895Z,10.15
2023-04-18T11:16:36.349Z,10.40
2023-04-18T11:19:23.527Z,9.52
2023-04-18T11:21:51.427Z,9.85
2023-04-18T11:24:24.733Z,9.50
2023-04-18T11:26:55.530Z,10.25
2023-04-18T11:29:22.633Z,9.93
2023-04-18T11:31:58.264Z,10.57
2023-04-18T11:34:31.070Z,10.13
2023-04-18T11:36:58.942Z,9.60
2023-04-18T11:39:26.263Z,9.38
2023-04-18T11:41:53.146Z,10.00
2023-04-18T11:44:24.682Z,9.48
2023-04-18T11:46:52.336Z,10.32
2023-04-18T11:49:30.301Z,10.00
2023-04-18T11:51:57.833Z,9.88
2023-04-18T11:54:40.396Z,9.75
2023-04-18T11:57:23.073Z,8.70
2023-04-18T12:02:23.108Z,8.10
2023-04-18T12:05:00.057Z,8.38
2023-04-18T12:07:36.073Z,9.15
2023-04-18T12:10:04.850Z,8.20
2023-04-18T12:12:31.907Z,8.70
2023-04-18T12:15:03.906Z,8.10
2023-04-18T12:17:34.550Z,8.13
2023-04-18T12:20:06.586Z,8.57
2023-04-18T12:22:58.201Z,9.10
2023-04-18T12:25:30.770Z,9.20
2023-04-18T12:28:06.822Z,8.50
2023-04-18T12:30:38.935Z,8.57
2023-04-18T12:33:07.043Z,8.52
2023-04-18T12:35:34.046Z,7.55
2023-04-18T12:38:02.431Z,8.02
2023-04-18T12:40:30.079Z,8.05
2023-04-18T12:42:57.063Z,8.38
2023-04-18T12:45:24.430Z,7.45
2023-04-18T12:47:52.056Z,7.85
2023-04-18T12:50:22.200Z,8.48
2023-04-18T12:52:52.698Z,7.90
2023-04-18T12:55:20.161Z,7.85
2023-04-18T12:57:47.102Z,7.35
2023-04-18T13:00:14.615Z,7.38
2023-04-18T13:02:47.073Z,7.88
2023-04-18T13:05:15.699Z,7.93
2023-04-18T13:07:43.135Z,7.22
2023-04-18T13:10:11.866Z,7.28
2023-04-18T13:12:39.851Z,6.93
2023-04-18T13:15:08.099Z,7.43
2023-04-18T13:17:37.899Z,7.25
2023-04-18T13:20:06.621Z,7.80
2023-04-18T13:22:33.864Z,7.90
2023-04-18T13:25:00.774Z,7.50
2023-04-18T13:27:27.519Z,7.25
2023-04-18T13:29:55.023Z,7.53
2023-04-18T13:32:22.385Z,7.28
2023-04-18T13:34:49.467Z,6.72
2023-04-18T13:37:16.418Z,7.07
2023-04-18T13:39:43.416Z,7.18
2023-04-18T13:42:10.157Z,7.20
2023-04-18T13:44:37.833Z,6.40
2023-04-18T13:47:06.009Z,7.18
2023-04-18T13:49:38.681Z,6.85
2023-04-18T13:52:05.513Z,6.10
2023-04-18T13:54:32.977Z,7.28
2023-04-18T13:57:03.922Z,5.88
2023-04-18T13:59:32.008Z,5.93
2023-04-18T14:01:59.125Z,5.47
2023-04-18T14:04:27.220Z,5.15
2023-04-18T14:06:55.504Z,5.78
2023-04-18T14:09:22.224Z,5.07
2023-04-18T14:11:49.118Z,5.25
2023-04-18T14:14:16.243Z,5.63
2023-04-18T14:16:43.313Z,4.78
2023-04-18T14:19:12.843Z,4.95
2023-04-18T14:21:39.782Z,4.47
2023-04-18T14:24:08.135Z,4.93
2023-04-18T14:26:34.845Z,5.22
2023-04-18T14:29:01.784Z,4.82
2023-04-18T14:31:28.480Z,4.13
2023-04-18T14:33:55.237Z,4.30
2023-04-18T14:36:21.976Z,4.00
2023-04-18T14:38:49.374Z,4.43
2023-04-18T14:41:16.747Z,4.40
2023-04-18T14:43:43.534Z,4.40
2023-04-18T14:46:16.650Z,4.53
2023-04-18T14:48:47.162Z,3.95
2023-04-18T14:51:16.159Z,4.40
2023-04-18T14:53:43.120Z,4.35
2023-04-18T14:56:09.907Z,4.82
2023-04-18T14:58:36.754Z,4.68
2023-04-18T15:01:04.249Z,3.65
2023-04-18T15:03:31.172Z,4.65
2023-04-18T15:05:58.032Z,4.18
2023-04-18T15:08:24.880Z,4.05
2023-04-18T15:10:51.697Z,3.92
2023-04-18T15:13:18.370Z,4.43
2023-04-18T15:15:54.809Z,5.28
2023-04-18T15:18:21.737Z,5.70
2023-04-18T15:20:48.539Z,5.75
2023-04-18T15:23:15.854Z,5.80
2023-04-18T15:25:45.697Z,6.18
2023-04-18T15:28:13.962Z,6.65
2023-04-18T15:30:40.873Z,6.40
2023-04-18T15:33:07.962Z,7.07
2023-04-18T15:35:35.002Z,6.25
2023-04-18T15:38:01.749Z,5.70
2023-04-18T15:40:28.718Z,5.88
2023-04-18T15:42:57.668Z,5.63
2023-04-18T15:45:24.395Z,5.50
2023-04-18T15:47:51.500Z,5.82
2023-04-18T15:50:18.449Z,5.90
2023-04-18T15:52:45.284Z,6.03
2023-04-18T15:55:13.151Z,6.03
2023-04-18T15:57:41.362Z,6.20
2023-04-18T16:00:15.707Z,6.93
2023-04-18T16:02:44.339Z,7.03
2023-04-18T16:05:15.295Z,6.78
2023-04-18T16:07:42.659Z,6.95
2023-04-18T16:10:10.826Z,6.72
2023-04-18T16:12:38.535Z,6.70
2023-04-18T16:15:07.202Z,6.85
2023-04-18T16:17:34.465Z,6.50
2023-04-18T16:20:01.307Z,6.80
2023-04-18T16:22:28.127Z,6.38
2023-04-18T16:24:55.725Z,7.22
2023-04-18T16:27:22.523Z,5.97
2023-04-18T16:29:49.616Z,6.13
2023-04-18T16:32:16.292Z,6.32
2023-04-18T16:34:42.941Z,6.22
2023-04-18T16:37:09.665Z,5.80
2023-04-18T16:39:36.443Z,6.57
2023-04-18T16:42:03.799Z,5.90
2023-04-18T16:44:30.661Z,5.40
2023-04-18T16:46:57.502Z,6.53
2023-04-18T16:49:24.635Z,5.30
2023-04-18T16:51:51.301Z,6.03
2023-04-18T16:54:18.026Z,5.38
2023-04-18T16:56:44.845Z,5.38
2023-04-18T16:59:11.616Z,5.13
2023-04-18T17:01:38.701Z,4.93
2023-04-18T17:04:05.996Z,4.88
2023-04-18T17:06:33.132Z,5.10
2023-04-18T17:08:59.976Z,4.68
2023-04-18T17:11:26.772Z,4.40
2023-04-18T17:13:53.716Z,5.32
2023-04-18T17:16:20.533Z,4.85
2023-04-18T17:18:47.605Z,4.30
2023-04-18T17:21:14.424Z,4.43
2023-04-18T17:23:42.511Z,4.53
2023-04-18T17:26:09.889Z,4.30
2023-04-18T17:28:36.721Z,4.32
2023-04-18T17:31:03.984Z,4.60
2023-04-18T17:33:31.367Z,4.68
2023-04-18T17:35:58.417Z,4.80
2023-04-18T17:38:25.619Z,3.97
2023-04-18T17:41:02.413Z,5.47
2023-04-18T17:43:29.376Z,4.15
2023-04-18T17:46:00.861Z,4.38
2023-04-18T17:48:27.587Z,4.35
2023-04-18T17:50:54.473Z,5.28
2023-04-18T17:53:21.340Z,4.72
2023-04-18T17:55:51.270Z,4.32
2023-04-18T17:58:19.741Z,5.10
2023-04-18T18:00:46.475Z,4.75
2023-04-18T18:03:14.539Z,4.55
2023-04-18T18:05:42.131Z,4.40
2023-04-18T18:08:08.878Z,4.40
2023-04-18T18:10:35.667Z,4.40
2023-04-18T18:13:02.550Z,4.40
2023-04-18T18:15:29.705Z,4.90
2023-04-18T18:17:56.415Z,4.40
2023-04-18T18:20:23.234Z,4.30
2023-04-18T18:22:50.771Z,4.85
2023-04-18T18:25:17.698Z,4.90
2023-04-18T18:27:44.479Z,4.90
2023-04-18T18:30:11.313Z,5.20
2023-04-18T18:32:37.988Z,4.82
2023-04-18T18:35:06.064Z,5.60
2023-04-18T18:37:33.242Z,4.93
2023-04-18T18:40:02.782Z,4.43
2023-04-18T18:42:29.449Z,4.97
2023-04-18T18:44:56.153Z,4.88
2023-04-18T18:47:22.885Z,4.18
2023-04-18T18:49:49.793Z,4.85
2023-04-18T18:52:16.821Z,4.72
2023-04-18T18:54:43.516Z,4.65
2023-04-18T18:57:10.248Z,5.07
2023-04-18T18:59:36.993Z,4.80
2023-04-18T19:02:04.256Z,4.57
2023-04-18T19:04:31.174Z,4.68
2023-04-18T19:06:57.987Z,4.47
2023-04-18T19:09:24.925Z,5.75
2023-04-18T19:11:51.675Z,5.30
2023-04-18T19:14:18.346Z,5.30
2023-04-18T19:16:45.113Z,4.53
2023-04-18T19:19:12.188Z,5.13
2023-04-18T19:21:39.700Z,4.72
2023-04-18T19:24:06.733Z,4.50
2023-04-18T19:26:33.574Z,5.40
2023-04-18T19:29:00.376Z,4.93
2023-04-18T19:31:27.160Z,5.72
2023-04-18T19:33:53.934Z,4.70
2023-04-18T19:36:22.470Z,4.80
2023-04-18T19:38:49.194Z,5.40
2023-04-18T19:41:15.966Z,5.30
2023-04-18T19:43:42.726Z,4.50
2023-04-18T19:46:09.652Z,5.05
2023-04-18T19:48:37.704Z,5.22
2023-04-18T19:51:04.916Z,5.60
2023-04-18T19:53:31.704Z,5.10
2023-04-18T19:55:58.516Z,5.57
2023-04-18T19:58:39.663Z,5.07
2023-04-18T20:01:07.438Z,5.20
2023-04-18T20:03:34.529Z,5.40
2023-04-18T20:06:01.592Z,5.78
2023-04-18T20:08:29.304Z,5.47
2023-04-18T20:10:56.522Z,5.25
2023-04-18T20:13:23.455Z,4.50
2023-04-18T20:15:50.344Z,5.25
2023-04-18T20:18:17.249Z,5.53
2023-04-18T20:20:44.240Z,5.65
2023-04-18T20:23:11.656Z,5.28
2023-04-18T20:25:38.346Z,5.22
2023-04-18T20:28:05.283Z,5.57
2023-04-18T20:30:32.286Z,5.25
2023-04-18T20:32:59.051Z,5.40
2023-04-18T20:35:27.830Z,5.75
2023-04-18T20:37:55.148Z,6.15
2023-04-18T20:40:22.273Z,5.57
2023-04-18T20:42:48.939Z,5.95
2023-04-18T20:45:15.739Z,5.65
2023-04-18T20:47:43.756Z,6.32
2023-04-18T20:50:11.043Z,6.82
2023-04-18T20:52:37.810Z,6.25
2023-04-18T20:55:04.744Z,6.60
2023-04-18T20:57:31.553Z,6.85
2023-04-18T20:59:59.524Z,6.70
2023-04-18T21:02:26.467Z,6.97
2023-04-18T21:04:53.462Z,6.15
2023-04-18T21:07:20.362Z,7.07
2023-04-18T21:09:47.356Z,7.78
2023-04-18T21:12:14.386Z,7.28
2023-04-18T21:14:41.110Z,8.23
2023-04-18T21:17:09.677Z,7.82
2023-04-18T21:19:36.843Z,7.97
2023-04-18T21:22:04.262Z,7.65
2023-04-18T21:24:31.032Z,9.30
2023-04-18T21:26:57.734Z,8.75
2023-04-18T21:29:24.436Z,9.32
2023-04-18T21:31:51.529Z,8.07
2023-04-18T21:34:18.424Z,9.52
2023-04-18T21:36:45.470Z,9.07
2023-04-18T21:39:12.356Z,9.70
2023-04-18T21:41:39.120Z,9.52
2023-04-18T21:44:05.995Z,9.93
2023-04-18T21:46:32.866Z,10.38
2023-04-18T21:48:59.622Z,10.85
2023-04-18T21:51:27.226Z,11.05
2023-04-18T21:53:54.094Z,10.88
2023-04-18T21:56:20.801Z,11.57
2023-04-18T21:58:47.702Z,11.63
2023-04-18T22:01:14.558Z,11.15
2023-04-18T22:03:41.719Z,11.07
2023-04-18T22:06:08.798Z,10.57
2023-04-18T22:08:36.154Z,11.02
2023-04-18T22:11:04.519Z,11.10
2023-04-18T22:13:33.029Z,10.65
2023-04-18T22:16:03.469Z,10.70
2023-04-18T22:18:33.995Z,10.70
2023-04-18T22:21:03.262Z,11.02
2023-04-18T22:23:30.890Z,11.82
2023-04-18T22:25:57.596Z,9.88
2023-04-18T22:28:24.451Z,11.30
2023-04-18T22:30:51.385Z,10.85
2023-04-18T22:33:18.398Z,11.35
2023-04-18T22:35:47.018Z,11.52
2023-04-18T22:38:13.847Z,11.68
2023-04-18T22:40:40.508Z,11.98
2023-04-18T22:43:07.212Z,11.95
2023-04-18T22:45:34.770Z,11.55
2023-04-18T22:48:01.541Z,10.80
2023-04-18T22:50:30.046Z,10.18
2023-04-18T22:52:57.261Z,11.27
2023-04-18T22:55:24.033Z,11.10
2023-04-18T22:57:50.764Z,10.10
2023-04-18T23:00:17.709Z,10.80
2023-04-18T23:02:44.654Z,11.30
2023-04-18T23:05:11.680Z,12.20
2023-04-18T23:07:38.908Z,12.10
2023-04-18T23:10:07.228Z,10.82
2023-04-18T23:12:34.042Z,11.80
2023-04-18T23:15:00.974Z,12.15
2023-04-18T23:17:27.732Z,11.23
2023-04-18T23:19:54.694Z,10.50
2023-04-18T23:22:23.942Z,10.82
2023-04-18T23:24:50.800Z,10.90
2023-04-18T23:27:18.213Z,10.50
2023-04-18T23:29:47.405Z,10.85
2023-04-18T23:32:14.527Z,11.07
2023-04-18T23:34:41.982Z,10.20
2023-04-18T23:37:09.683Z,10.10
2023-04-18T23:39:36.647Z,10.25
2023-04-18T23:42:03.592Z,10.45
2023-04-18T23:44:31.603Z,10.25
2023-04-18T23:46:58.919Z,9.20
2023-04-18T23:49:28.044Z,10.63
2023-04-18T23:51:54.969Z,9.68
2023-04-18T23:54:21.698Z,10.90
2023-04-18T23:56:48.374Z,9.95
2023-04-18T23:59:15.050Z,10.25
